Time;durP1;ratioP1;P1;durP2;ratioP2;P2;SDS_P1;SDS_P2;PMS_P1;PMS_P2;Temp;Humidity;BMP_temperature;BMP_pressure;BME280_temperature;BME280_humidity;BME280_pressure;Samples;Min_cycle;Max_cycle;Signal;HPM_P1;HPM_P2
2021/10/07 00:01:50;;;;;;;7.33;6.60;;;;;;;;;;5076775;28;20285;-60
2021/10/07 00:04:15;;;;;;;9.83;7.50;;;;;;;;;;5076328;28;20232;-60
2021/10/07 00:06:40;;;;;;;8.10;7.00;;;;;;;;;;5076749;28;20619;-60
2021/10/07 00:09:06;;;;;;;7.20;6.60;;;;;;;;;;5066734;28;20233;-60
2021/10/07 00:11:32;;;;;;;8.20;6.90;;;;;;;;;;5055737;28;20320;-60
2021/10/07 00:13:57;;;;;;;10.33;6.77;;;;;;;;;;5056489;28;20542;-61
2021/10/07 00:16:23;;;;;;;7.30;6.60;;;;;;;;;;5056023;28;20597;-60
2021/10/07 00:18:50;;;;;;;6.53;5.80;;;;;;;;;;5061011;28;20236;-60
2021/10/07 00:21:19;;;;;;;7.03;6.33;;;;;;;;;;5075782;28;20228;-60
2021/10/07 00:24:03;;;;;;;9.17;5.77;;;;;;;;;;5076207;28;20465;-61
2021/10/07 00:26:29;;;;;;;8.20;6.67;;;;;;;;;;5076164;28;20467;-60
2021/10/07 00:28:58;;;;;;;12.23;6.80;;;;;;;;;;5076116;28;20467;-60
2021/10/07 00:31:26;;;;;;;7.27;6.57;;;;;;;;;;5075854;28;20220;-60
2021/10/07 00:34:12;;;;;;;8.40;5.93;;;;;;;;;;5076272;28;20558;-60
2021/10/07 00:36:43;;;;;;;9.23;5.83;;;;;;;;;;5075737;28;20462;-60
2021/10/07 00:39:08;;;;;;;8.30;6.50;;;;;;;;;;5075164;28;20994;-60
2021/10/07 00:41:39;;;;;;;7.40;5.80;;;;;;;;;;5075322;28;20447;-61
2021/10/07 00:44:05;;;;;;;7.20;6.50;;;;;;;;;;5076130;28;20227;-60
2021/10/07 00:46:31;;;;;;;7.47;6.77;;;;;;;;;;5060645;28;20479;-61
2021/10/07 00:48:59;;;;;;;7.63;5.80;;;;;;;;;;5057468;28;20464;-61
2021/10/07 00:51:24;;;;;;;6.97;6.37;;;;;;;;;;5065769;28;20477;-61
2021/10/07 00:53:50;;;;;;;8.90;5.90;;;;;;;;;;5061009;28;20463;-60
2021/10/07 00:56:19;;;;;;;6.40;5.80;;;;;;;;;;5066930;28;20282;-61
2021/10/07 00:58:45;;;;;;;6.77;6.07;;;;;;;;;;5068806;28;20224;-61
2021/10/07 01:01:10;;;;;;;7.27;6.33;;;;;;;;;;5064398;28;20471;-61
2021/10/07 01:03:35;;;;;;;7.57;5.87;;;;;;;;;;5060422;28;20945;-61
2021/10/07 01:06:01;;;;;;;7.97;7.20;;;;;;;;;;5066799;28;20233;-60
2021/10/07 01:08:27;;;;;;;6.77;6.17;;;;;;;;;;5067134;28;20304;-61
2021/10/07 01:10:52;;;;;;;7.00;6.30;;;;;;;;;;5065078;28;20251;-61
2021/10/07 01:13:17;;;;;;;7.77;5.80;;;;;;;;;;5068329;28;20290;-60
2021/10/07 01:15:42;;;;;;;6.97;6.27;;;;;;;;;;5063805;28;20550;-60
2021/10/07 01:18:08;;;;;;;5.97;5.37;;;;;;;;;;5061518;28;20347;-60
2021/10/07 01:20:33;;;;;;;7.93;5.77;;;;;;;;;;5063505;28;20255;-61
2021/10/07 01:22:58;;;;;;;6.10;5.53;;;;;;;;;;5061596;28;20224;-61
2021/10/07 01:25:24;;;;;;;6.90;6.27;;;;;;;;;;5066610;28;20251;-61
2021/10/07 01:27:55;;;;;;;7.03;6.43;;;;;;;;;;5068434;28;20319;-60
2021/10/07 01:30:20;;;;;;;8.10;6.80;;;;;;;;;;5062803;28;20309;-60
2021/10/07 01:32:46;;;;;;;8.67;6.90;;;;;;;;;;5061556;28;20456;-61
2021/10/07 01:35:11;;;;;;;6.50;5.83;;;;;;;;;;5066561;28;20724;-61
2021/10/07 01:37:37;;;;;;;7.00;6.30;;;;;;;;;;5067665;28;20227;-61
2021/10/07 01:40:04;;;;;;;6.87;6.00;;;;;;;;;;5062660;28;20569;-60
2021/10/07 01:42:29;;;;;;;6.33;5.73;;;;;;;;;;5060804;28;20225;-61
2021/10/07 01:44:54;;;;;;;6.90;6.00;;;;;;;;;;5066503;28;20470;-61
2021/10/07 01:47:20;;;;;;;8.40;7.60;;;;;;;;;;5057396;28;20311;-61
2021/10/07 01:49:45;;;;;;;7.00;6.33;;;;;;;;;;5067295;28;20656;-60
2021/10/07 01:52:10;;;;;;;7.30;6.70;;;;;;;;;;5066138;28;20221;-60
2021/10/07 01:54:36;;;;;;;11.17;7.03;;;;;;;;;;5062892;28;20670;-61
2021/10/07 01:57:01;;;;;;;9.20;8.30;;;;;;;;;;5065645;28;20220;-60
2021/10/07 01:59:26;;;;;;;10.77;8.30;;;;;;;;;;5060489;28;20212;-60
2021/10/07 02:01:52;;;;;;;11.53;9.63;;;;;;;;;;5062963;28;20236;-61
2021/10/07 02:04:17;;;;;;;12.00;9.47;;;;;;;;;;5067724;28;20227;-61
2021/10/07 02:06:42;;;;;;;17.33;14.10;;;;;;;;;;5064979;28;20262;-60
2021/10/07 02:09:08;;;;;;;11.90;9.20;;;;;;;;;;5061134;28;20244;-62
2021/10/07 02:11:34;;;;;;;11.50;10.10;;;;;;;;;;5062531;28;20616;-61
2021/10/07 02:14:00;;;;;;;9.60;8.60;;;;;;;;;;5067279;28;20221;-60
2021/10/07 02:16:26;;;;;;;11.03;7.87;;;;;;;;;;5064984;28;20459;-61
2021/10/07 02:18:51;;;;;;;7.53;6.53;;;;;;;;;;5056643;28;20968;-62
2021/10/07 02:21:17;;;;;;;13.13;11.43;;;;;;;;;;5054793;28;20471;-61
2021/10/07 02:23:42;;;;;;;8.50;7.47;;;;;;;;;;5066825;28;20600;-61
2021/10/07 02:26:08;;;;;;;13.70;10.00;;;;;;;;;;5064888;28;20219;-61
2021/10/07 02:28:33;;;;;;;8.93;8.07;;;;;;;;;;5059967;28;20665;-61
2021/10/07 02:30:58;;;;;;;10.80;8.57;;;;;;;;;;5063118;28;20228;-60
2021/10/07 02:33:24;;;;;;;7.80;7.10;;;;;;;;;;5067015;28;20225;-60
2021/10/07 02:35:50;;;;;;;9.00;7.00;;;;;;;;;;5064999;28;20223;-60
2021/10/07 02:38:15;;;;;;;10.73;9.30;;;;;;;;;;5060567;28;20806;-61
2021/10/07 02:40:40;;;;;;;7.90;7.10;;;;;;;;;;5062449;28;20546;-60
2021/10/07 02:43:06;;;;;;;8.17;7.10;;;;;;;;;;5067240;28;20237;-60
2021/10/07 02:45:31;;;;;;;10.27;9.27;;;;;;;;;;5062192;28;20518;-60
2021/10/07 02:47:56;;;;;;;8.47;7.67;;;;;;;;;;5060264;28;20644;-61
2021/10/07 02:50:22;;;;;;;7.80;7.10;;;;;;;;;;5046592;28;20220;-61
2021/10/07 02:52:48;;;;;;;10.50;7.33;;;;;;;;;;5060443;28;20278;-61
2021/10/07 02:55:14;;;;;;;12.33;11.10;;;;;;;;;;5067052;28;20547;-60
2021/10/07 02:57:41;;;;;;;9.00;5.77;;;;;;;;;;5061573;28;20228;-59
2021/10/07 03:00:08;;;;;;;6.83;6.23;;;;;;;;;;5051876;28;20225;-59
2021/10/07 03:02:33;;;;;;;8.20;6.13;;;;;;;;;;5059369;28;21022;-59
2021/10/07 03:04:58;;;;;;;5.70;5.20;;;;;;;;;;5070958;28;20455;-58
2021/10/07 03:07:24;;;;;;;8.50;6.00;;;;;;;;;;5068460;28;20236;-59
2021/10/07 03:09:49;;;;;;;6.13;5.53;;;;;;;;;;5063709;28;20232;-59
2021/10/07 03:12:14;;;;;;;6.87;6.20;;;;;;;;;;5066311;28;20316;-59
2021/10/07 03:14:42;;;;;;;6.33;5.73;;;;;;;;;;5070256;28;20227;-59
2021/10/07 03:17:07;;;;;;;6.63;6.13;;;;;;;;;;5068734;28;20277;-59
2021/10/07 03:19:33;;;;;;;6.63;5.97;;;;;;;;;;5065689;28;20547;-60
2021/10/07 03:21:58;;;;;;;7.63;7.00;;;;;;;;;;5068188;28;20384;-59
2021/10/07 03:24:23;;;;;;;6.40;5.80;;;;;;;;;;5063558;28;20227;-59
2021/10/07 03:26:49;;;;;;;7.10;6.00;;;;;;;;;;5066852;28;20240;-59
2021/10/07 03:29:14;;;;;;;6.80;5.97;;;;;;;;;;5070605;28;20232;-59
2021/10/07 03:31:39;;;;;;;6.87;5.77;;;;;;;;;;5066108;28;20233;-60
2021/10/07 03:34:04;;;;;;;8.33;5.27;;;;;;;;;;5070563;28;20232;-60
2021/10/07 03:36:30;;;;;;;6.03;5.43;;;;;;;;;;5066921;28;20301;-59
2021/10/07 03:38:55;;;;;;;6.93;6.00;;;;;;;;;;5063338;28;20782;-59
2021/10/07 03:41:20;;;;;;;6.97;6.07;;;;;;;;;;5066938;28;20232;-60
2021/10/07 03:43:45;;;;;;;8.53;6.60;;;;;;;;;;5070092;28;20252;-58
2021/10/07 03:46:11;;;;;;;6.50;5.90;;;;;;;;;;5059093;28;20377;-59
2021/10/07 03:48:36;;;;;;;7.90;6.30;;;;;;;;;;5069532;28;20231;-59
2021/10/07 03:51:01;;;;;;;6.27;5.67;;;;;;;;;;5066562;28;20225;-58
2021/10/07 03:53:27;;;;;;;6.10;5.37;;;;;;;;;;5063340;28;20274;-59
2021/10/07 03:55:53;;;;;;;9.67;6.20;;;;;;;;;;5067638;28;20339;-59
2021/10/07 03:58:18;;;;;;;5.80;5.30;;;;;;;;;;5070288;28;20219;-58
2021/10/07 04:00:44;;;;;;;6.03;5.43;;;;;;;;;;5061026;28;20474;-58
2021/10/07 04:03:09;;;;;;;8.37;6.10;;;;;;;;;;5065194;28;20217;-59
2021/10/07 04:05:34;;;;;;;6.30;5.70;;;;;;;;;;5069821;28;20303;-60
2021/10/07 04:07:59;;;;;;;6.87;6.17;;;;;;;;;;5067707;28;20235;-59
2021/10/07 04:10:25;;;;;;;6.87;6.17;;;;;;;;;;5062647;28;20236;-59
2021/10/07 04:12:50;;;;;;;5.20;4.70;;;;;;;;;;5064701;28;20643;-60
2021/10/07 04:15:15;;;;;;;6.80;6.20;;;;;;;;;;5069771;28;20248;-60
2021/10/07 04:17:40;;;;;;;7.37;6.67;;;;;;;;;;5066671;28;20240;-59
2021/10/07 04:20:06;;;;;;;9.33;6.30;;;;;;;;;;5062185;28;20243;-59
2021/10/07 04:22:31;;;;;;;6.17;5.57;;;;;;;;;;5065630;28;20289;-59
2021/10/07 04:24:57;;;;;;;5.83;5.30;;;;;;;;;;5069842;28;20315;-59
2021/10/07 04:27:23;;;;;;;7.53;5.63;;;;;;;;;;5066632;28;20644;-59
2021/10/07 04:29:48;;;;;;;8.33;7.00;;;;;;;;;;5061974;28;20239;-59
2021/10/07 04:32:13;;;;;;;6.53;5.87;;;;;;;;;;5066418;28;20856;-59
2021/10/07 04:34:38;;;;;;;6.80;5.90;;;;;;;;;;5067769;28;20225;-58
2021/10/07 04:37:04;;;;;;;6.13;5.53;;;;;;;;;;5065511;28;20244;-59
2021/10/07 04:39:29;;;;;;;7.00;6.30;;;;;;;;;;5061906;28;20306;-59
2021/10/07 04:41:55;;;;;;;5.77;5.27;;;;;;;;;;5066426;28;20296;-58
2021/10/07 04:44:20;;;;;;;7.57;5.90;;;;;;;;;;5069551;28;20223;-59
2021/10/07 04:46:45;;;;;;;6.67;6.00;;;;;;;;;;5064493;28;20218;-58
2021/10/07 04:49:10;;;;;;;8.03;6.40;;;;;;;;;;5062478;28;20237;-59
2021/10/07 04:51:36;;;;;;;6.40;5.70;;;;;;;;;;5066493;28;20235;-59
2021/10/07 04:54:01;;;;;;;12.03;6.70;;;;;;;;;;5067964;28;20556;-59
2021/10/07 04:56:26;;;;;;;6.80;6.10;;;;;;;;;;5063787;28;20303;-59
2021/10/07 04:58:54;;;;;;;6.53;5.93;;;;;;;;;;5061926;28;20544;-59
2021/10/07 05:01:20;;;;;;;6.90;6.20;;;;;;;;;;5066366;28;20228;-59
2021/10/07 05:03:45;;;;;;;6.97;6.27;;;;;;;;;;5064177;28;20489;-58
2021/10/07 05:06:10;;;;;;;6.97;6.27;;;;;;;;;;5072621;28;20571;-59
2021/10/07 05:08:35;;;;;;;6.00;5.40;;;;;;;;;;5064463;28;20240;-58
2021/10/07 05:11:01;;;;;;;7.27;6.63;;;;;;;;;;5068554;28;20679;-59
2021/10/07 05:13:26;;;;;;;8.33;6.57;;;;;;;;;;5065679;28;20273;-59
2021/10/07 05:15:51;;;;;;;9.33;7.67;;;;;;;;;;5061086;28;20308;-59
2021/10/07 05:18:17;;;;;;;8.33;7.47;;;;;;;;;;5065290;28;20251;-59
2021/10/07 05:20:45;;;;;;;11.13;6.10;;;;;;;;;;5061134;28;20303;-59
2021/10/07 05:23:10;;;;;;;6.30;5.60;;;;;;;;;;5064784;28;20231;-59
2021/10/07 05:25:35;;;;;;;6.97;6.37;;;;;;;;;;5067250;28;20466;-59
2021/10/07 05:28:00;;;;;;;6.43;5.83;;;;;;;;;;5064975;28;20251;-59
2021/10/07 05:30:28;;;;;;;9.40;5.77;;;;;;;;;;5061401;28;20220;-59
2021/10/07 05:32:53;;;;;;;8.00;5.60;;;;;;;;;;5064198;28;20554;-59
2021/10/07 05:35:18;;;;;;;5.40;5.00;;;;;;;;;;5068282;28;20525;-59
2021/10/07 05:37:44;;;;;;;7.30;6.60;;;;;;;;;;5064265;28;20220;-59
2021/10/07 05:40:10;;;;;;;5.60;5.10;;;;;;;;;;5061142;28;20304;-59
2021/10/07 05:42:35;;;;;;;7.13;5.27;;;;;;;;;;5064315;28;20645;-58
2021/10/07 05:45:00;;;;;;;7.23;5.50;;;;;;;;;;5067958;28;20294;-59
2021/10/07 05:47:25;;;;;;;6.07;5.50;;;;;;;;;;5063627;28;20269;-59
2021/10/07 05:49:51;;;;;;;6.00;5.27;;;;;;;;;;5059264;28;20251;-59
2021/10/07 05:52:16;;;;;;;6.50;5.90;;;;;;;;;;5065102;28;20300;-58
2021/10/07 05:54:41;;;;;;;6.13;5.50;;;;;;;;;;5067159;28;20553;-60
2021/10/07 05:57:07;;;;;;;6.60;5.20;;;;;;;;;;5062663;28;20348;-59
2021/10/07 05:59:32;;;;;;;8.77;4.90;;;;;;;;;;5059894;28;20224;-60
2021/10/07 06:01:58;;;;;;;6.43;5.93;;;;;;;;;;5060729;28;20224;-59
2021/10/07 06:04:24;;;;;;;7.07;6.03;;;;;;;;;;5062410;28;20225;-60
2021/10/07 06:06:49;;;;;;;9.57;7.13;;;;;;;;;;5067737;28;20757;-59
2021/10/07 06:09:14;;;;;;;9.57;8.50;;;;;;;;;;5062094;28;20232;-59
2021/10/07 06:11:39;;;;;;;8.23;7.03;;;;;;;;;;5066721;28;20656;-59
2021/10/07 06:14:05;;;;;;;7.60;6.60;;;;;;;;;;5065650;28;20227;-59
2021/10/07 06:16:33;;;;;;;9.03;7.60;;;;;;;;;;5060647;28;20217;-59
2021/10/07 06:18:58;;;;;;;8.07;7.07;;;;;;;;;;5061851;28;20463;-59
2021/10/07 06:21:23;;;;;;;12.50;7.37;;;;;;;;;;5067133;28;20471;-60
2021/10/07 06:23:48;;;;;;;10.13;7.60;;;;;;;;;;5065003;28;20274;-59
2021/10/07 06:26:14;;;;;;;7.37;6.63;;;;;;;;;;5060371;28;20216;-60
2021/10/07 06:28:39;;;;;;;8.23;6.93;;;;;;;;;;5062013;28;20329;-59
2021/10/07 06:31:05;;;;;;;10.10;7.17;;;;;;;;;;5066942;28;20577;-60
2021/10/07 06:33:31;;;;;;;10.20;7.63;;;;;;;;;;5064575;28;20228;-60
2021/10/07 06:35:58;;;;;;;10.07;8.10;;;;;;;;;;5059579;28;20232;-60
2021/10/07 06:38:24;;;;;;;8.40;7.50;;;;;;;;;;5061248;28;20934;-59
2021/10/07 06:40:49;;;;;;;10.10;8.00;;;;;;;;;;5066539;28;20553;-59
2021/10/07 06:43:14;;;;;;;9.30;8.30;;;;;;;;;;5064579;28;20249;-59
2021/10/07 06:45:40;;;;;;;10.23;8.77;;;;;;;;;;5056062;28;20309;-60
2021/10/07 06:48:05;;;;;;;9.23;7.77;;;;;;;;;;5064084;28;20331;-59
2021/10/07 06:50:31;;;;;;;10.50;9.20;;;;;;;;;;5060304;28;20232;-61
2021/10/07 06:52:58;;;;;;;9.57;8.57;;;;;;;;;;5062354;28;20251;-61
2021/10/07 06:55:23;;;;;;;13.50;8.43;;;;;;;;;;5066894;28;20652;-62
2021/10/07 06:57:49;;;;;;;9.20;8.20;;;;;;;;;;5064069;28;20533;-61
2021/10/07 07:00:14;;;;;;;11.30;8.00;;;;;;;;;;5055503;28;20220;-61
2021/10/07 07:02:40;;;;;;;8.80;7.90;;;;;;;;;;5064079;28;20224;-61
2021/10/07 07:05:06;;;;;;;8.60;7.80;;;;;;;;;;5059574;28;20319;-61
2021/10/07 07:07:32;;;;;;;10.00;8.20;;;;;;;;;;5068622;28;20504;-61
2021/10/07 07:09:58;;;;;;;10.33;9.10;;;;;;;;;;5058985;28;20486;-62
2021/10/07 07:12:23;;;;;;;10.40;9.03;;;;;;;;;;5062821;28;20510;-61
2021/10/07 07:14:48;;;;;;;10.07;8.70;;;;;;;;;;5066359;28;20263;-62
2021/10/07 07:17:15;;;;;;;8.93;7.93;;;;;;;;;;5063771;28;20315;-61
2021/10/07 07:19:40;;;;;;;10.17;8.10;;;;;;;;;;5063938;28;20224;-63
2021/10/07 07:22:06;;;;;;;7.70;6.90;;;;;;;;;;5063302;28;20988;-62
2021/10/07 07:24:31;;;;;;;9.57;7.97;;;;;;;;;;5060063;28;20300;-61
2021/10/07 07:26:56;;;;;;;8.60;7.40;;;;;;;;;;5062632;28;20309;-61
2021/10/07 07:29:21;;;;;;;7.73;7.03;;;;;;;;;;5066319;28;20660;-61
2021/10/07 07:31:47;;;;;;;11.10;7.90;;;;;;;;;;5062897;28;20224;-62
2021/10/07 07:34:12;;;;;;;8.33;7.53;;;;;;;;;;5059722;28;20311;-61
2021/10/07 07:36:37;;;;;;;9.87;8.70;;;;;;;;;;5062894;28;20233;-61
2021/10/07 07:39:03;;;;;;;10.27;7.60;;;;;;;;;;5066038;28;20304;-61
2021/10/07 07:41:29;;;;;;;8.30;7.50;;;;;;;;;;5063011;28;20231;-62
2021/10/07 07:43:54;;;;;;;10.53;8.10;;;;;;;;;;5059071;28;20244;-62
2021/10/07 07:46:20;;;;;;;9.90;8.27;;;;;;;;;;5062866;28;20963;-61
2021/10/07 07:48:46;;;;;;;8.47;7.57;;;;;;;;;;5068122;28;20558;-61
2021/10/07 07:51:12;;;;;;;7.87;7.07;;;;;;;;;;5066753;28;20470;-61
2021/10/07 07:53:37;;;;;;;7.60;6.90;;;;;;;;;;5063020;28;20239;-61
2021/10/07 07:56:02;;;;;;;8.93;7.17;;;;;;;;;;5066268;28;20641;-61
2021/10/07 07:58:28;;;;;;;8.50;7.80;;;;;;;;;;5069609;28;20303;-61
2021/10/07 08:00:53;;;;;;;9.33;8.47;;;;;;;;;;5056214;28;20232;-61
2021/10/07 08:03:18;;;;;;;10.93;7.43;;;;;;;;;;5069871;28;20676;-62
2021/10/07 08:05:43;;;;;;;8.20;6.40;;;;;;;;;;5064747;28;20228;-60
2021/10/07 08:08:09;;;;;;;10.27;8.53;;;;;;;;;;5069373;28;20301;-61
2021/10/07 08:10:35;;;;;;;8.60;7.77;;;;;;;;;;5065031;28;20232;-61
2021/10/07 08:13:01;;;;;;;8.70;7.80;;;;;;;;;;5060574;28;20583;-62
2021/10/07 08:15:26;;;;;;;9.73;8.77;;;;;;;;;;5054286;28;20474;-61
2021/10/07 08:17:52;;;;;;;10.53;8.63;;;;;;;;;;5052274;28;20463;-61
2021/10/07 08:20:17;;;;;;;11.67;7.90;;;;;;;;;;5064002;28;20233;-62
2021/10/07 08:22:45;;;;;;;10.33;9.43;;;;;;;;;;5069423;28;20228;-60
2021/10/07 08:25:10;;;;;;;11.40;8.23;;;;;;;;;;5064960;28;20222;-61
2021/10/07 08:27:37;;;;;;;8.87;8.07;;;;;;;;;;5062478;28;20767;-61
2021/10/07 08:30:06;;;;;;;8.93;8.03;;;;;;;;;;5065489;28;20680;-62
2021/10/07 08:32:32;;;;;;;8.60;7.70;;;;;;;;;;5068969;28;20471;-61
2021/10/07 08:34:57;;;;;;;12.17;8.57;;;;;;;;;;5065028;28;20820;-61
2021/10/07 08:37:22;;;;;;;10.17;7.90;;;;;;;;;;5062689;28;20720;-62
2021/10/07 08:39:47;;;;;;;7.83;7.07;;;;;;;;;;5065517;28;20278;-62
2021/10/07 08:42:14;;;;;;;7.00;6.30;;;;;;;;;;5062221;28;20295;-62
2021/10/07 08:44:39;;;;;;;9.13;7.60;;;;;;;;;;5066274;28;20244;-61
2021/10/07 08:47:04;;;;;;;7.73;6.87;;;;;;;;;;5068806;28;20479;-61
2021/10/07 08:49:36;;;;;;;8.40;7.07;;;;;;;;;;5064867;28;20238;-61
2021/10/07 08:52:01;;;;;;;8.90;7.33;;;;;;;;;;5065423;28;20229;-61
2021/10/07 08:54:26;;;;;;;12.17;7.33;;;;;;;;;;5065639;28;20497;-61
2021/10/07 08:56:51;;;;;;;8.47;7.57;;;;;;;;;;5061890;28;20320;-63
2021/10/07 08:59:18;;;;;;;7.73;6.60;;;;;;;;;;5064465;28;20299;-61
2021/10/07 09:01:49;;;;;;;10.33;7.70;;;;;;;;;;5068545;28;20236;-60
2021/10/07 09:04:33;;;;;;;8.17;7.47;;;;;;;;;;5066214;28;20486;-62
2021/10/07 09:07:04;;;;;;;7.73;6.93;;;;;;;;;;5061685;28;20489;-61
2021/10/07 09:09:31;;;;;;;9.97;7.67;;;;;;;;;;5061798;28;20502;-62
2021/10/07 09:11:59;;;;;;;10.03;8.33;;;;;;;;;;5067732;28;20495;-63
2021/10/07 09:14:28;;;;;;;7.53;6.87;;;;;;;;;;5068601;28;20470;-61
2021/10/07 09:16:54;;;;;;;8.20;7.40;;;;;;;;;;5055525;28;20460;-62
2021/10/07 09:19:25;;;;;;;8.40;7.57;;;;;;;;;;5055979;28;20458;-61
2021/10/07 09:21:53;;;;;;;8.47;7.00;;;;;;;;;;5061182;28;20462;-61
2021/10/07 09:24:30;;;;;;;7.23;6.50;;;;;;;;;;5063632;28;20471;-62
2021/10/07 09:26:59;;;;;;;9.27;7.03;;;;;;;;;;5068151;28;20923;-61
2021/10/07 09:29:38;;;;;;;9.27;6.83;;;;;;;;;;5068335;28;20470;-62
2021/10/07 09:32:05;;;;;;;7.60;6.50;;;;;;;;;;5063531;28;20529;-61
2021/10/07 09:34:38;;;;;;;6.90;6.20;;;;;;;;;;5061188;28;20463;-62
2021/10/07 09:37:18;;;;;;;9.20;6.80;;;;;;;;;;5064822;28;20752;-62
2021/10/07 09:39:56;;;;;;;9.67;5.60;;;;;;;;;;5067801;28;20482;-62
2021/10/07 09:42:24;;;;;;;6.60;6.00;;;;;;;;;;5067985;28;20462;-63
2021/10/07 09:45:01;;;;;;;8.30;6.20;;;;;;;;;;5048453;28;20462;-62
2021/10/07 09:47:33;;;;;;;7.60;5.83;;;;;;;;;;5060594;28;20451;-63
2021/10/07 09:50:09;;;;;;;6.90;6.20;;;;;;;;;;5064341;28;20467;-63
2021/10/07 09:52:39;;;;;;;7.67;6.00;;;;;;;;;;5058959;28;20470;-62
2021/10/07 09:55:19;;;;;;;6.87;6.27;;;;;;;;;;5063411;28;20471;-62
2021/10/07 09:57:52;;;;;;;6.70;5.33;;;;;;;;;;5067489;28;21292;-61
2021/10/07 10:00:17;;;;;;;8.00;7.23;;;;;;;;;;5067582;28;20466;-63
2021/10/07 10:02:42;;;;;;;7.30;5.53;;;;;;;;;;5060748;28;20466;-62
2021/10/07 10:05:13;;;;;;;6.43;4.57;;;;;;;;;;5060961;28;20560;-61
2021/10/07 10:07:39;;;;;;;5.90;5.00;;;;;;;;;;5066458;28;20239;-62
2021/10/07 10:10:05;;;;;;;9.07;5.80;;;;;;;;;;5067282;28;20919;-61
2021/10/07 10:12:31;;;;;;;8.67;5.20;;;;;;;;;;5061026;28;20467;-61
2021/10/07 10:14:56;;;;;;;5.93;4.77;;;;;;;;;;5060393;28;20970;-61
2021/10/07 10:17:22;;;;;;;7.37;5.30;;;;;;;;;;5062585;28;20213;-62
2021/10/07 10:19:51;;;;;;;9.43;4.87;;;;;;;;;;5054914;28;20217;-61
2021/10/07 10:22:16;;;;;;;6.53;4.97;;;;;;;;;;5059334;28;20220;-62
2021/10/07 10:24:45;;;;;;;9.33;5.07;;;;;;;;;;5061926;28;20448;-63
2021/10/07 10:27:10;;;;;;;6.10;5.13;;;;;;;;;;5067466;28;20217;-62
2021/10/07 10:29:36;;;;;;;4.00;3.70;;;;;;;;;;5063004;28;20566;-64
2021/10/07 10:32:03;;;;;;;5.07;4.10;;;;;;;;;;5060264;28;20216;-62
2021/10/07 10:34:37;;;;;;;7.43;5.67;;;;;;;;;;5061954;28;20221;-63
2021/10/07 10:37:04;;;;;;;7.17;5.87;;;;;;;;;;5067266;28;20471;-62
2021/10/07 10:39:37;;;;;;;5.10;4.70;;;;;;;;;;5065200;28;20560;-61
2021/10/07 10:42:08;;;;;;;5.80;4.20;;;;;;;;;;5060165;28;20528;-61
2021/10/07 10:44:46;;;;;;;6.90;3.87;;;;;;;;;;5059820;28;20529;-62
2021/10/07 10:47:11;;;;;;;4.23;3.83;;;;;;;;;;5065375;28;20464;-62
2021/10/07 10:49:51;;;;;;;4.50;3.95;;;;;;;;;;5066289;28;20773;-62
2021/10/07 10:52:32;;;;;;;4.87;4.37;;;;;;;;;;5063970;28;20212;-62
2021/10/07 10:55:02;;;;;;;6.90;3.63;;;;;;;;;;5059799;28;20507;-62
2021/10/07 10:57:41;;;;;;;6.67;3.63;;;;;;;;;;5060999;28;20454;-61
2021/10/07 11:00:09;;;;;;;5.60;3.10;;;;;;;;;;5048826;28;20891;-62
2021/10/07 11:02:37;;;;;;;5.30;3.37;;;;;;;;;;5060409;28;20962;-61
2021/10/07 11:05:28;;;;;;;4.13;3.30;;;;;;;;;;5065296;28;20957;-63
2021/10/07 11:08:11;;;;;;;5.67;2.80;;;;;;;;;;5065640;28;20460;-63
2021/10/07 11:10:40;;;;;;;3.77;2.53;;;;;;;;;;5066750;28;20866;-62
2021/10/07 11:13:12;;;;;;;4.50;3.30;;;;;;;;;;5060496;28;20450;-62
2021/10/07 11:15:37;;;;;;;5.43;3.80;;;;;;;;;;5059714;28;20472;-63
2021/10/07 11:18:02;;;;;;;4.87;3.70;;;;;;;;;;5054346;28;20928;-62
2021/10/07 11:20:30;;;;;;;4.37;3.27;;;;;;;;;;5062772;28;20221;-63
2021/10/07 11:23:13;;;;;;;4.47;3.10;;;;;;;;;;5063894;28;20277;-62
2021/10/07 11:25:41;;;;;;;3.40;2.33;;;;;;;;;;5063557;28;20455;-62
2021/10/07 11:28:07;;;;;;;3.00;2.67;;;;;;;;;;5064617;28;20549;-62
2021/10/07 11:30:35;;;;;;;3.80;2.90;;;;;;;;;;5070236;28;20560;-62
2021/10/07 11:33:01;;;;;;;2.80;2.13;;;;;;;;;;5069678;28;20470;-62
2021/10/07 11:35:27;;;;;;;2.67;2.30;;;;;;;;;;5063681;28;20953;-63
2021/10/07 11:37:52;;;;;;;4.67;2.73;;;;;;;;;;5064053;28;20474;-62
2021/10/07 11:40:26;;;;;;;2.80;2.30;;;;;;;;;;5070501;28;20560;-62
2021/10/07 11:42:51;;;;;;;3.07;2.40;;;;;;;;;;5070060;28;20216;-61
2021/10/07 11:45:21;;;;;;;3.30;2.27;;;;;;;;;;5063406;28;20848;-62
2021/10/07 11:47:47;;;;;;;2.50;2.30;;;;;;;;;;5063119;28;20533;-62
2021/10/07 11:50:15;;;;;;;2.50;2.30;;;;;;;;;;5069545;28;20525;-62
2021/10/07 11:52:40;;;;;;;3.17;2.40;;;;;;;;;;5069078;28;20593;-62
2021/10/07 11:55:06;;;;;;;4.03;2.63;;;;;;;;;;5063727;28;20446;-62
2021/10/07 11:57:32;;;;;;;3.27;2.63;;;;;;;;;;5062601;28;20213;-63
2021/10/07 11:59:57;;;;;;;4.30;2.60;;;;;;;;;;5053717;28;20658;-62
2021/10/07 12:02:23;;;;;;;3.43;2.83;;;;;;;;;;5054695;28;20487;-62
2021/10/07 12:04:48;;;;;;;4.40;2.37;;;;;;;;;;5054236;28;20559;-63
2021/10/07 12:07:14;;;;;;;4.43;3.00;;;;;;;;;;5055671;28;20225;-62
2021/10/07 12:09:43;;;;;;;2.53;1.70;;;;;;;;;;5054832;28;20229;-62
2021/10/07 12:12:09;;;;;;;5.20;2.73;;;;;;;;;;5054898;28;20776;-62
2021/10/07 12:14:35;;;;;;;4.13;2.40;;;;;;;;;;5056447;28;20451;-63
2021/10/07 12:17:00;;;;;;;5.00;2.50;;;;;;;;;;5056136;28;20859;-62
2021/10/07 12:19:29;;;;;;;4.03;2.40;;;;;;;;;;5056528;28;20216;-62
2021/10/07 12:21:56;;;;;;;3.30;2.30;;;;;;;;;;5054921;28;20221;-62
2021/10/07 12:24:26;;;;;;;3.90;1.97;;;;;;;;;;5056234;28;20448;-61
2021/10/07 12:26:56;;;;;;;3.27;2.60;;;;;;;;;;5055841;28;20782;-62
2021/10/07 12:29:29;;;;;;;2.50;2.13;;;;;;;;;;5056218;28;20996;-62
2021/10/07 12:32:03;;;;;;;4.90;1.90;;;;;;;;;;5055822;28;20840;-62
2021/10/07 12:34:34;;;;;;;3.53;2.30;;;;;;;;;;5056053;28;20454;-63
2021/10/07 12:37:01;;;;;;;4.67;1.57;;;;;;;;;;5055701;28;20456;-62
2021/10/07 12:39:39;;;;;;;2.70;1.87;;;;;;;;;;5056002;28;20459;-62
2021/10/07 12:42:18;;;;;;;2.00;1.80;;;;;;;;;;5055931;28;20455;-62
2021/10/07 12:44:45;;;;;;;2.77;1.80;;;;;;;;;;5056214;28;20951;-62
2021/10/07 12:47:15;;;;;;;2.20;1.77;;;;;;;;;;5055427;28;20543;-62
2021/10/07 12:49:46;;;;;;;3.40;2.07;;;;;;;;;;5055951;28;20482;-63
2021/10/07 12:52:28;;;;;;;1.93;1.60;;;;;;;;;;5055484;28;20483;-62
2021/10/07 12:54:59;;;;;;;5.07;1.93;;;;;;;;;;5055359;28;21019;-61
2021/10/07 12:57:50;;;;;;;2.30;2.10;;;;;;;;;;5055765;28;20466;-62
2021/10/07 13:00:15;;;;;;;2.10;1.80;;;;;;;;;;5054667;28;20523;-62
2021/10/07 13:02:40;;;;;;;2.40;1.75;;;;;;;;;;5055549;28;20554;-62
2021/10/07 13:05:17;;;;;;;5.87;2.80;;;;;;;;;;5055142;28;20283;-61
2021/10/07 13:07:45;;;;;;;3.77;2.30;;;;;;;;;;5055467;28;20212;-61
2021/10/07 13:10:10;;;;;;;2.10;1.90;;;;;;;;;;5054851;28;20496;-62
2021/10/07 13:12:36;;;;;;;3.00;2.50;;;;;;;;;;5055359;28;20492;-62
2021/10/07 13:15:01;;;;;;;5.10;2.00;;;;;;;;;;5054841;28;20213;-62
2021/10/07 13:17:26;;;;;;;4.03;2.37;;;;;;;;;;5055473;28;20221;-61
2021/10/07 13:19:51;;;;;;;3.17;1.70;;;;;;;;;;5055353;28;20646;-61
2021/10/07 13:22:17;;;;;;;7.50;2.97;;;;;;;;;;5054903;28;20665;-61
2021/10/07 13:24:42;;;;;;;2.13;1.80;;;;;;;;;;5055327;28;20343;-62
2021/10/07 13:27:11;;;;;;;2.83;1.73;;;;;;;;;;5054857;28;20221;-62
2021/10/07 13:29:37;;;;;;;1.97;1.60;;;;;;;;;;5055164;28;20219;-62
2021/10/07 13:32:03;;;;;;;4.10;1.87;;;;;;;;;;5054538;28;20463;-64
2021/10/07 13:34:28;;;;;;;2.80;2.00;;;;;;;;;;5055075;28;20454;-61
2021/10/07 13:36:54;;;;;;;3.83;2.30;;;;;;;;;;5054346;28;20558;-61
2021/10/07 13:39:19;;;;;;;3.43;1.70;;;;;;;;;;5054881;28;20297;-61
2021/10/07 13:41:44;;;;;;;1.77;1.67;;;;;;;;;;5054984;28;20221;-62
2021/10/07 13:44:09;;;;;;;4.80;2.00;;;;;;;;;;5054396;28;20220;-63
2021/10/07 13:46:35;;;;;;;2.70;2.27;;;;;;;;;;5054301;28;20212;-62
2021/10/07 13:49:00;;;;;;;6.07;2.47;;;;;;;;;;5054165;28;20224;-61
2021/10/07 13:51:26;;;;;;;3.43;2.27;;;;;;;;;;5054573;28;20225;-62
2021/10/07 13:53:52;;;;;;;3.43;2.23;;;;;;;;;;5054585;28;20232;-61
2021/10/07 13:56:17;;;;;;;3.17;2.50;;;;;;;;;;5054453;28;20683;-62
2021/10/07 13:58:43;;;;;;;3.47;2.07;;;;;;;;;;5053472;28;20296;-61
2021/10/07 14:01:08;;;;;;;2.87;2.10;;;;;;;;;;5054052;28;20396;-62
2021/10/07 14:03:33;;;;;;;3.20;2.60;;;;;;;;;;5054377;28;20296;-62
2021/10/07 14:05:59;;;;;;;2.90;1.57;;;;;;;;;;5054175;28;20285;-61
2021/10/07 14:08:24;;;;;;;5.40;2.23;;;;;;;;;;5054625;28;20293;-62
2021/10/07 14:10:50;;;;;;;4.37;1.90;;;;;;;;;;5054007;28;20676;-62
2021/10/07 14:13:15;;;;;;;2.20;1.87;;;;;;;;;;5053256;28;20217;-61
2021/10/07 14:15:41;;;;;;;3.33;2.00;;;;;;;;;;5053404;28;20911;-62
2021/10/07 14:18:06;;;;;;;1.90;1.80;;;;;;;;;;5052865;28;20248;-61
2021/10/07 14:20:32;;;;;;;1.53;1.43;;;;;;;;;;5052200;28;20320;-61
2021/10/07 14:22:58;;;;;;;2.83;1.73;;;;;;;;;;5053074;28;20674;-62
2021/10/07 14:25:24;;;;;;;1.50;1.40;;;;;;;;;;5053377;28;20221;-62
2021/10/07 14:27:49;;;;;;;2.50;1.77;;;;;;;;;;5053371;28;20585;-62
2021/10/07 14:30:15;;;;;;;4.97;1.80;;;;;;;;;;5052831;28;20217;-62
2021/10/07 14:32:40;;;;;;;2.03;1.40;;;;;;;;;;5053271;28;20313;-61
2021/10/07 14:35:07;;;;;;;2.03;1.53;;;;;;;;;;5052731;28;20209;-62
2021/10/07 14:37:32;;;;;;;1.80;1.30;;;;;;;;;;5053063;28;20350;-62
2021/10/07 14:39:58;;;;;;;3.10;1.63;;;;;;;;;;5052599;28;20570;-62